sensor_id;sensor_type;location;lat;lon;timestamp;P1;durP1;ratioP1;P2;durP2;ratioP2
21798;SDS011;24973;47.178;15.316;2023-07-29T00:00:15;3.97;;;2.70;;
21798;SDS011;24973;47.178;15.316;2023-07-29T00:03:06;3.40;;;2.17;;
21798;SDS011;24973;47.178;15.316;2023-07-29T00:05:55;3.47;;;2.70;;
21798;SDS011;24973;47.178;15.316;2023-07-29T00:08:46;5.17;;;2.77;;
21798;SDS011;24973;47.178;15.316;2023-07-29T00:11:35;2.63;;;2.43;;
21798;SDS011;24973;47.178;15.316;2023-07-29T00:14:24;7.23;;;2.83;;
21798;SDS011;24973;47.178;15.316;2023-07-29T00:17:13;4.83;;;3.00;;
21798;SDS011;24973;47.178;15.316;2023-07-29T00:20:02;3.67;;;2.67;;
21798;SDS011;24973;47.178;15.316;2023-07-29T00:22:53;2.67;;;2.47;;
21798;SDS011;24973;47.178;15.316;2023-07-29T00:25:46;2.93;;;2.30;;
21798;SDS011;24973;47.178;15.316;2023-07-29T00:28:35;3.30;;;3.00;;
21798;SDS011;24973;47.178;15.316;2023-07-29T00:31:24;3.10;;;2.80;;
21798;SDS011;24973;47.178;15.316;2023-07-29T00:34:13;5.23;;;2.70;;
21798;SDS011;24973;47.178;15.316;2023-07-29T00:37:06;4.67;;;2.73;;
21798;SDS011;24973;47.178;15.316;2023-07-29T00:39:55;2.93;;;2.60;;
21798;SDS011;24973;47.178;15.316;2023-07-29T00:42:46;5.77;;;2.93;;
21798;SDS011;24973;47.178;15.316;2023-07-29T00:45:35;3.10;;;2.80;;
21798;SDS011;24973;47.178;15.316;2023-07-29T00:48:24;3.33;;;2.60;;
21798;SDS011;24973;47.178;15.316;2023-07-29T00:51:14;3.93;;;2.80;;
21798;SDS011;24973;47.178;15.316;2023-07-29T00:54:03;3.17;;;2.57;;
21798;SDS011;24973;47.178;15.316;2023-07-29T00:56:52;3.77;;;3.00;;
21798;SDS011;24973;47.178;15.316;2023-07-29T00:59:42;4.00;;;2.97;;
21798;SDS011;24973;47.178;15.316;2023-07-29T01:02:31;3.57;;;2.40;;
21798;SDS011;24973;47.178;15.316;2023-07-29T01:05:21;5.30;;;3.03;;
21798;SDS011;24973;47.178;15.316;2023-07-29T01:08:11;3.70;;;3.17;;
21798;SDS011;24973;47.178;15.316;2023-07-29T01:11:08;3.47;;;2.93;;
21798;SDS011;24973;47.178;15.316;2023-07-29T01:14:04;4.73;;;3.60;;
21798;SDS011;24973;47.178;15.316;2023-07-29T01:17:08;2.53;;;2.33;;
21798;SDS011;24973;47.178;15.316;2023-07-29T01:20:01;5.47;;;2.50;;
21798;SDS011;24973;47.178;15.316;2023-07-29T01:22:54;3.70;;;2.70;;
21798;SDS011;24973;47.178;15.316;2023-07-29T01:25:44;3.17;;;2.83;;
21798;SDS011;24973;47.178;15.316;2023-07-29T01:28:33;3.07;;;2.33;;
21798;SDS011;24973;47.178;15.316;2023-07-29T01:31:24;3.87;;;2.93;;
21798;SDS011;24973;47.178;15.316;2023-07-29T01:34:21;6.43;;;3.90;;
21798;SDS011;24973;47.178;15.316;2023-07-29T01:37:22;4.40;;;2.97;;
21798;SDS011;24973;47.178;15.316;2023-07-29T01:40:15;5.47;;;2.40;;
21798;SDS011;24973;47.178;15.316;2023-07-29T01:43:05;10.67;;;3.90;;
21798;SDS011;24973;47.178;15.316;2023-07-29T01:45:55;7.53;;;3.10;;
21798;SDS011;24973;47.178;15.316;2023-07-29T01:48:44;2.73;;;2.47;;
21798;SDS011;24973;47.178;15.316;2023-07-29T01:51:33;4.80;;;3.27;;
21798;SDS011;24973;47.178;15.316;2023-07-29T01:54:22;3.33;;;2.80;;
21798;SDS011;24973;47.178;15.316;2023-07-29T01:57:11;3.73;;;3.20;;
21798;SDS011;24973;47.178;15.316;2023-07-29T02:00:01;3.70;;;2.97;;
21798;SDS011;24973;47.178;15.316;2023-07-29T02:02:51;3.27;;;2.83;;
21798;SDS011;24973;47.178;15.316;2023-07-29T02:05:40;2.77;;;2.57;;
21798;SDS011;24973;47.178;15.316;2023-07-29T02:08:30;2.77;;;2.20;;
21798;SDS011;24973;47.178;15.316;2023-07-29T02:11:19;3.33;;;2.77;;
21798;SDS011;24973;47.178;15.316;2023-07-29T02:14:13;4.97;;;2.57;;
21798;SDS011;24973;47.178;15.316;2023-07-29T02:17:04;4.07;;;2.60;;
21798;SDS011;24973;47.178;15.316;2023-07-29T02:19:53;6.10;;;3.20;;
21798;SDS011;24973;47.178;15.316;2023-07-29T02:22:42;4.70;;;2.77;;
21798;SDS011;24973;47.178;15.316;2023-07-29T02:25:31;4.97;;;2.93;;
21798;SDS011;24973;47.178;15.316;2023-07-29T02:28:22;3.83;;;3.53;;
21798;SDS011;24973;47.178;15.316;2023-07-29T02:31:15;3.97;;;2.73;;
21798;SDS011;24973;47.178;15.316;2023-07-29T02:34:11;5.43;;;3.37;;
21798;SDS011;24973;47.178;15.316;2023-07-29T02:37:00;3.07;;;2.63;;
21798;SDS011;24973;47.178;15.316;2023-07-29T02:39:49;2.43;;;2.23;;
21798;SDS011;24973;47.178;15.316;2023-07-29T02:42:38;3.77;;;2.10;;
21798;SDS011;24973;47.178;15.316;2023-07-29T02:45:27;5.90;;;3.07;;
21798;SDS011;24973;47.178;15.316;2023-07-29T02:48:16;4.40;;;3.10;;
21798;SDS011;24973;47.178;15.316;2023-07-29T02:51:07;5.10;;;2.67;;
21798;SDS011;24973;47.178;15.316;2023-07-29T02:53:56;4.77;;;3.00;;
21798;SDS011;24973;47.178;15.316;2023-07-29T02:56:45;3.23;;;2.67;;
21798;SDS011;24973;47.178;15.316;2023-07-29T02:59:34;4.40;;;3.00;;
21798;SDS011;24973;47.178;15.316;2023-07-29T03:02:23;3.37;;;2.57;;
21798;SDS011;24973;47.178;15.316;2023-07-29T03:05:12;4.20;;;2.67;;
21798;SDS011;24973;47.178;15.316;2023-07-29T03:08:02;4.60;;;2.80;;
21798;SDS011;24973;47.178;15.316;2023-07-29T03:10:52;5.37;;;2.70;;
21798;SDS011;24973;47.178;15.316;2023-07-29T03:13:41;9.17;;;3.27;;
21798;SDS011;24973;47.178;15.316;2023-07-29T03:16:30;3.77;;;2.93;;
21798;SDS011;24973;47.178;15.316;2023-07-29T03:19:19;3.03;;;2.73;;
21798;SDS011;24973;47.178;15.316;2023-07-29T03:22:08;4.43;;;2.67;;
21798;SDS011;24973;47.178;15.316;2023-07-29T03:24:59;4.07;;;2.77;;
21798;SDS011;24973;47.178;15.316;2023-07-29T03:27:48;5.30;;;2.90;;
21798;SDS011;24973;47.178;15.316;2023-07-29T03:30:37;6.53;;;3.40;;
21798;SDS011;24973;47.178;15.316;2023-07-29T03:33:26;10.30;;;2.73;;
21798;SDS011;24973;47.178;15.316;2023-07-29T03:36:15;6.70;;;2.90;;
21798;SDS011;24973;47.178;15.316;2023-07-29T03:39:06;5.27;;;2.73;;
21798;SDS011;24973;47.178;15.316;2023-07-29T03:41:56;3.97;;;3.17;;
21798;SDS011;24973;47.178;15.316;2023-07-29T03:44:45;3.33;;;3.00;;
21798;SDS011;24973;47.178;15.316;2023-07-29T03:47:34;4.33;;;2.63;;
21798;SDS011;24973;47.178;15.316;2023-07-29T03:50:24;7.03;;;3.03;;
21798;SDS011;24973;47.178;15.316;2023-07-29T03:53:13;4.37;;;2.37;;
21798;SDS011;24973;47.178;15.316;2023-07-29T03:56:02;4.73;;;2.53;;
21798;SDS011;24973;47.178;15.316;2023-07-29T03:58:53;3.00;;;2.60;;
21798;SDS011;24973;47.178;15.316;2023-07-29T04:01:45;5.53;;;2.97;;
21798;SDS011;24973;47.178;15.316;2023-07-29T04:04:34;5.87;;;3.03;;
21798;SDS011;24973;47.178;15.316;2023-07-29T04:07:23;6.07;;;2.50;;
21798;SDS011;24973;47.178;15.316;2023-07-29T04:10:12;3.53;;;3.17;;
21798;SDS011;24973;47.178;15.316;2023-07-29T04:13:01;5.23;;;2.40;;
21798;SDS011;24973;47.178;15.316;2023-07-29T04:15:52;3.30;;;2.97;;
21798;SDS011;24973;47.178;15.316;2023-07-29T04:18:41;3.03;;;2.30;;
21798;SDS011;24973;47.178;15.316;2023-07-29T04:21:30;8.53;;;3.20;;
21798;SDS011;24973;47.178;15.316;2023-07-29T04:24:19;3.90;;;3.00;;
21798;SDS011;24973;47.178;15.316;2023-07-29T04:27:09;3.67;;;2.67;;
21798;SDS011;24973;47.178;15.316;2023-07-29T04:29:58;4.03;;;2.90;;
21798;SDS011;24973;47.178;15.316;2023-07-29T04:32:49;3.53;;;2.67;;
21798;SDS011;24973;47.178;15.316;2023-07-29T04:35:38;3.13;;;2.43;;
21798;SDS011;24973;47.178;15.316;2023-07-29T04:38:32;6.27;;;3.17;;
21798;SDS011;24973;47.178;15.316;2023-07-29T04:41:21;4.93;;;2.93;;
21798;SDS011;24973;47.178;15.316;2023-07-29T04:44:10;7.13;;;2.80;;
21798;SDS011;24973;47.178;15.316;2023-07-29T04:47:00;6.53;;;2.93;;
21798;SDS011;24973;47.178;15.316;2023-07-29T04:49:50;3.27;;;2.60;;
21798;SDS011;24973;47.178;15.316;2023-07-29T04:52:39;3.87;;;2.23;;
21798;SDS011;24973;47.178;15.316;2023-07-29T04:55:28;3.77;;;3.10;;
21798;SDS011;24973;47.178;15.316;2023-07-29T04:58:17;4.33;;;3.53;;
21798;SDS011;24973;47.178;15.316;2023-07-29T05:01:06;4.10;;;2.83;;
21798;SDS011;24973;47.178;15.316;2023-07-29T05:03:56;5.20;;;3.10;;
21798;SDS011;24973;47.178;15.316;2023-07-29T05:06:46;3.60;;;2.50;;
21798;SDS011;24973;47.178;15.316;2023-07-29T05:09:35;3.87;;;2.70;;
21798;SDS011;24973;47.178;15.316;2023-07-29T05:12:24;3.43;;;2.50;;
21798;SDS011;24973;47.178;15.316;2023-07-29T05:15:13;3.90;;;3.03;;
21798;SDS011;24973;47.178;15.316;2023-07-29T05:18:02;2.80;;;2.53;;
21798;SDS011;24973;47.178;15.316;2023-07-29T05:20:51;3.47;;;2.53;;
21798;SDS011;24973;47.178;15.316;2023-07-29T05:23:42;8.70;;;2.53;;
21798;SDS011;24973;47.178;15.316;2023-07-29T05:26:31;5.10;;;2.47;;
21798;SDS011;24973;47.178;15.316;2023-07-29T05:29:20;5.40;;;3.00;;
21798;SDS011;24973;47.178;15.316;2023-07-29T05:32:09;3.27;;;2.67;;
21798;SDS011;24973;47.178;15.316;2023-07-29T05:34:58;2.60;;;2.33;;
21798;SDS011;24973;47.178;15.316;2023-07-29T05:37:48;3.27;;;2.47;;
21798;SDS011;24973;47.178;15.316;2023-07-29T05:40:38;5.27;;;2.63;;
21798;SDS011;24973;47.178;15.316;2023-07-29T05:43:28;7.17;;;2.43;;
21798;SDS011;24973;47.178;15.316;2023-07-29T05:46:17;3.10;;;2.73;;
21798;SDS011;24973;47.178;15.316;2023-07-29T05:49:06;2.77;;;2.47;;
21798;SDS011;24973;47.178;15.316;2023-07-29T05:51:55;4.93;;;3.00;;
21798;SDS011;24973;47.178;15.316;2023-07-29T05:54:44;3.97;;;2.80;;
21798;SDS011;24973;47.178;15.316;2023-07-29T05:57:34;5.03;;;2.77;;
21798;SDS011;24973;47.178;15.316;2023-07-29T06:00:23;7.53;;;2.80;;
21798;SDS011;24973;47.178;15.316;2023-07-29T06:03:12;3.17;;;2.60;;
21798;SDS011;24973;47.178;15.316;2023-07-29T06:06:01;4.37;;;3.30;;
21798;SDS011;24973;47.178;15.316;2023-07-29T06:08:50;5.60;;;2.70;;
21798;SDS011;24973;47.178;15.316;2023-07-29T06:11:39;4.97;;;3.00;;
21798;SDS011;24973;47.178;15.316;2023-07-29T06:14:30;5.07;;;3.00;;
21798;SDS011;24973;47.178;15.316;2023-07-29T06:17:19;4.77;;;3.13;;
21798;SDS011;24973;47.178;15.316;2023-07-29T06:20:08;4.87;;;3.20;;
21798;SDS011;24973;47.178;15.316;2023-07-29T06:22:57;3.93;;;3.53;;
21798;SDS011;24973;47.178;15.316;2023-07-29T06:25:46;5.10;;;2.90;;
21798;SDS011;24973;47.178;15.316;2023-07-29T06:28:36;6.87;;;2.90;;
21798;SDS011;24973;47.178;15.316;2023-07-29T06:31:26;3.47;;;2.83;;
21798;SDS011;24973;47.178;15.316;2023-07-29T06:34:16;3.17;;;2.73;;
21798;SDS011;24973;47.178;15.316;2023-07-29T06:37:05;3.23;;;2.80;;
21798;SDS011;24973;47.178;15.316;2023-07-29T06:39:54;3.80;;;3.23;;
21798;SDS011;24973;47.178;15.316;2023-07-29T06:42:43;5.67;;;3.47;;
21798;SDS011;24973;47.178;15.316;2023-07-29T06:45:32;3.77;;;3.30;;
21798;SDS011;24973;47.178;15.316;2023-07-29T06:48:22;4.77;;;3.43;;
21798;SDS011;24973;47.178;15.316;2023-07-29T06:51:11;5.30;;;4.03;;
21798;SDS011;24973;47.178;15.316;2023-07-29T06:54:00;3.87;;;2.83;;
21798;SDS011;24973;47.178;15.316;2023-07-29T06:56:50;3.93;;;2.77;;
21798;SDS011;24973;47.178;15.316;2023-07-29T06:59:39;4.37;;;3.17;;
21798;SDS011;24973;47.178;15.316;2023-07-29T07:02:28;5.67;;;3.00;;
21798;SDS011;24973;47.178;15.316;2023-07-29T07:05:18;4.73;;;3.37;;
21798;SDS011;24973;47.178;15.316;2023-07-29T07:08:07;3.43;;;2.60;;
21798;SDS011;24973;47.178;15.316;2023-07-29T07:10:56;4.70;;;2.60;;
21798;SDS011;24973;47.178;15.316;2023-07-29T07:13:45;4.43;;;2.97;;
21798;SDS011;24973;47.178;15.316;2023-07-29T07:16:35;6.43;;;2.93;;
21798;SDS011;24973;47.178;15.316;2023-07-29T07:19:26;4.80;;;2.80;;
21798;SDS011;24973;47.178;15.316;2023-07-29T07:22:16;3.90;;;2.97;;
21798;SDS011;24973;47.178;15.316;2023-07-29T07:25:05;3.47;;;3.17;;
21798;SDS011;24973;47.178;15.316;2023-07-29T07:27:55;4.27;;;3.23;;
21798;SDS011;24973;47.178;15.316;2023-07-29T07:30:44;3.00;;;2.70;;
21798;SDS011;24973;47.178;15.316;2023-07-29T07:33:33;5.50;;;2.90;;
21798;SDS011;24973;47.178;15.316;2023-07-29T07:36:22;5.53;;;3.33;;
21798;SDS011;24973;47.178;15.316;2023-07-29T07:39:12;4.30;;;3.37;;
21798;SDS011;24973;47.178;15.316;2023-07-29T07:42:02;5.23;;;3.03;;
21798;SDS011;24973;47.178;15.316;2023-07-29T07:44:51;3.40;;;2.60;;
21798;SDS011;24973;47.178;15.316;2023-07-29T07:47:40;5.27;;;2.73;;
21798;SDS011;24973;47.178;15.316;2023-07-29T07:50:29;4.20;;;2.90;;
21798;SDS011;24973;47.178;15.316;2023-07-29T07:53:18;6.60;;;3.40;;
21798;SDS011;24973;47.178;15.316;2023-07-29T07:56:09;4.67;;;2.50;;
21798;SDS011;24973;47.178;15.316;2023-07-29T07:58:58;3.67;;;2.70;;
21798;SDS011;24973;47.178;15.316;2023-07-29T08:01:47;6.13;;;3.60;;
21798;SDS011;24973;47.178;15.316;2023-07-29T08:04:36;2.73;;;2.23;;
21798;SDS011;24973;47.178;15.316;2023-07-29T08:07:25;3.97;;;2.53;;
21798;SDS011;24973;47.178;15.316;2023-07-29T08:10:14;5.47;;;3.40;;
21798;SDS011;24973;47.178;15.316;2023-07-29T08:13:04;4.20;;;2.83;;
21798;SDS011;24973;47.178;15.316;2023-07-29T08:15:53;3.30;;;2.70;;
21798;SDS011;24973;47.178;15.316;2023-07-29T08:18:42;5.93;;;2.27;;
21798;SDS011;24973;47.178;15.316;2023-07-29T08:21:32;3.17;;;2.10;;
21798;SDS011;24973;47.178;15.316;2023-07-29T08:24:21;3.87;;;2.63;;
21798;SDS011;24973;47.178;15.316;2023-07-29T08:27:10;3.60;;;2.33;;
21798;SDS011;24973;47.178;15.316;2023-07-29T08:30:00;4.20;;;2.90;;
21798;SDS011;24973;47.178;15.316;2023-07-29T08:32:49;2.93;;;2.20;;
21798;SDS011;24973;47.178;15.316;2023-07-29T08:35:38;3.33;;;1.90;;
21798;SDS011;24973;47.178;15.316;2023-07-29T08:38:28;2.03;;;1.90;;
21798;SDS011;24973;47.178;15.316;2023-07-29T08:41:19;2.17;;;1.80;;
21798;SDS011;24973;47.178;15.316;2023-07-29T08:44:16;2.23;;;1.90;;
21798;SDS011;24973;47.178;15.316;2023-07-29T08:47:10;2.40;;;1.53;;
21798;SDS011;24973;47.178;15.316;2023-07-29T08:50:01;3.03;;;2.03;;
21798;SDS011;24973;47.178;15.316;2023-07-29T08:52:51;1.97;;;1.37;;
21798;SDS011;24973;47.178;15.316;2023-07-29T08:55:40;3.83;;;1.87;;
21798;SDS011;24973;47.178;15.316;2023-07-29T08:58:29;2.67;;;2.17;;
21798;SDS011;24973;47.178;15.316;2023-07-29T09:01:19;2.30;;;2.00;;
21798;SDS011;24973;47.178;15.316;2023-07-29T09:04:09;4.40;;;2.40;;
21798;SDS011;24973;47.178;15.316;2023-07-29T09:06:58;2.60;;;1.73;;
21798;SDS011;24973;47.178;15.316;2023-07-29T09:09:47;2.07;;;1.77;;
21798;SDS011;24973;47.178;15.316;2023-07-29T09:12:36;1.63;;;1.47;;
21798;SDS011;24973;47.178;15.316;2023-07-29T09:15:26;2.43;;;1.63;;
21798;SDS011;24973;47.178;15.316;2023-07-29T09:18:16;3.10;;;2.07;;
21798;SDS011;24973;47.178;15.316;2023-07-29T09:21:08;2.90;;;1.97;;
21798;SDS011;24973;47.178;15.316;2023-07-29T09:23:57;2.30;;;1.90;;
21798;SDS011;24973;47.178;15.316;2023-07-29T09:26:48;4.40;;;1.90;;
21798;SDS011;24973;47.178;15.316;2023-07-29T09:29:40;2.27;;;2.07;;
21798;SDS011;24973;47.178;15.316;2023-07-29T09:32:29;2.63;;;1.87;;
21798;SDS011;24973;47.178;15.316;2023-07-29T09:35:18;2.60;;;2.00;;
21798;SDS011;24973;47.178;15.316;2023-07-29T09:38:08;2.40;;;1.80;;
21798;SDS011;24973;47.178;15.316;2023-07-29T09:41:03;4.10;;;2.10;;
21798;SDS011;24973;47.178;15.316;2023-07-29T09:43:55;3.23;;;2.17;;
21798;SDS011;24973;47.178;15.316;2023-07-29T09:46:45;4.70;;;2.10;;
21798;SDS011;24973;47.178;15.316;2023-07-29T09:49:35;2.13;;;1.93;;
21798;SDS011;24973;47.178;15.316;2023-07-29T09:52:24;2.00;;;1.83;;
21798;SDS011;24973;47.178;15.316;2023-07-29T09:55:16;4.10;;;2.10;;
21798;SDS011;24973;47.178;15.316;2023-07-29T09:58:06;3.15;;;2.10;;
21798;SDS011;24973;47.178;15.316;2023-07-29T10:00:55;7.05;;;2.17;;
21798;SDS011;24973;47.178;15.316;2023-07-29T10:03:44;3.17;;;1.92;;
21798;SDS011;24973;47.178;15.316;2023-07-29T10:06:34;2.22;;;2.03;;
21798;SDS011;24973;47.178;15.316;2023-07-29T10:09:23;3.80;;;1.98;;
21798;SDS011;24973;47.178;15.316;2023-07-29T10:12:14;2.28;;;2.00;;
21798;SDS011;24973;47.178;15.316;2023-07-29T10:15:05;3.85;;;2.00;;
21798;SDS011;24973;47.178;15.316;2023-07-29T10:17:55;2.35;;;2.05;;
21798;SDS011;24973;47.178;15.316;2023-07-29T10:20:44;1.80;;;1.70;;
21798;SDS011;24973;47.178;15.316;2023-07-29T10:23:36;2.67;;;1.60;;
21798;SDS011;24973;47.178;15.316;2023-07-29T10:26:30;4.55;;;2.40;;
21798;SDS011;24973;47.178;15.316;2023-07-29T10:29:23;2.10;;;1.90;;
21798;SDS011;24973;47.178;15.316;2023-07-29T10:32:12;2.10;;;1.90;;
21798;SDS011;24973;47.178;15.316;2023-07-29T10:35:02;3.28;;;2.13;;
21798;SDS011;24973;47.178;15.316;2023-07-29T10:37:51;2.22;;;2.03;;
21798;SDS011;24973;47.178;15.316;2023-07-29T10:40:44;2.88;;;1.90;;
21798;SDS011;24973;47.178;15.316;2023-07-29T10:43:35;2.65;;;2.05;;
21798;SDS011;24973;47.178;15.316;2023-07-29T10:46:27;3.42;;;2.22;;
21798;SDS011;24973;47.178;15.316;2023-07-29T10:49:15;3.83;;;2.08;;
21798;SDS011;24973;47.178;15.316;2023-07-29T10:52:12;4.07;;;1.95;;
21798;SDS011;24973;47.178;15.316;2023-07-29T10:55:03;2.53;;;2.00;;
21798;SDS011;24973;47.178;15.316;2023-07-29T10:58:12;2.42;;;2.22;;
21798;SDS011;24973;47.178;15.316;2023-07-29T11:01:05;2.10;;;1.65;;
21798;SDS011;24973;47.178;15.316;2023-07-29T11:07:23;3.72;;;2.47;;
21798;SDS011;24973;47.178;15.316;2023-07-29T11:10:16;2.53;;;2.30;;
21798;SDS011;24973;47.178;15.316;2023-07-29T11:13:05;2.60;;;1.60;;
21798;SDS011;24973;47.178;15.316;2023-07-29T11:15:54;2.60;;;2.15;;
21798;SDS011;24973;47.178;15.316;2023-07-29T11:18:45;3.40;;;2.10;;
21798;SDS011;24973;47.178;15.316;2023-07-29T11:21:37;2.97;;;2.40;;
21798;SDS011;24973;47.178;15.316;2023-07-29T11:24:26;2.42;;;2.20;;
21798;SDS011;24973;47.178;15.316;2023-07-29T11:27:15;2.58;;;2.22;;
21798;SDS011;24973;47.178;15.316;2023-07-29T11:30:05;3.17;;;2.20;;
21798;SDS011;24973;47.178;15.316;2023-07-29T11:32:56;2.60;;;1.73;;
21798;SDS011;24973;47.178;15.316;2023-07-29T11:35:46;2.40;;;2.13;;
21798;SDS011;24973;47.178;15.316;2023-07-29T11:38:36;3.75;;;2.45;;
21798;SDS011;24973;47.178;15.316;2023-07-29T11:41:27;3.72;;;2.50;;
21798;SDS011;24973;47.178;15.316;2023-07-29T11:44:17;3.03;;;2.42;;
21798;SDS011;24973;47.178;15.316;2023-07-29T11:47:06;3.15;;;2.42;;
21798;SDS011;24973;47.178;15.316;2023-07-29T11:49:57;3.42;;;2.15;;
21798;SDS011;24973;47.178;15.316;2023-07-29T11:52:47;4.30;;;2.20;;
21798;SDS011;24973;47.178;15.316;2023-07-29T11:55:38;3.05;;;2.05;;
21798;SDS011;24973;47.178;15.316;2023-07-29T11:58:27;2.30;;;2.10;;
21798;SDS011;24973;47.178;15.316;2023-07-29T12:01:15;2.45;;;2.22;;
21798;SDS011;24973;47.178;15.316;2023-07-29T12:04:04;1.95;;;1.75;;
21798;SDS011;24973;47.178;15.316;2023-07-29T12:06:53;2.95;;;1.88;;
21798;SDS011;24973;47.178;15.316;2023-07-29T12:09:43;4.03;;;2.20;;
21798;SDS011;24973;47.178;15.316;2023-07-29T12:12:35;1.98;;;1.70;;
21798;SDS011;24973;47.178;15.316;2023-07-29T12:15:31;2.72;;;2.10;;
21798;SDS011;24973;47.178;15.316;2023-07-29T12:18:29;2.33;;;1.98;;
21798;SDS011;24973;47.178;15.316;2023-07-29T12:21:19;5.80;;;2.42;;
21798;SDS011;24973;47.178;15.316;2023-07-29T12:24:07;2.35;;;2.05;;
21798;SDS011;24973;47.178;15.316;2023-07-29T12:26:56;2.22;;;2.00;;
21798;SDS011;24973;47.178;15.316;2023-07-29T12:29:46;2.30;;;1.98;;
21798;SDS011;24973;47.178;15.316;2023-07-29T12:32:42;2.08;;;1.85;;
21798;SDS011;24973;47.178;15.316;2023-07-29T12:35:35;4.47;;;2.40;;
21798;SDS011;24973;47.178;15.316;2023-07-29T12:38:26;4.22;;;2.40;;
21798;SDS011;24973;47.178;15.316;2023-07-29T12:41:16;3.10;;;2.25;;
21798;SDS011;24973;47.178;15.316;2023-07-29T12:44:05;2.67;;;2.45;;
21798;SDS011;24973;47.178;15.316;2023-07-29T12:46:55;2.53;;;2.13;;
21798;SDS011;24973;47.178;15.316;2023-07-29T12:49:44;3.00;;;1.50;;
21798;SDS011;24973;47.178;15.316;2023-07-29T12:52:33;2.27;;;1.80;;
21798;SDS011;24973;47.178;15.316;2023-07-29T12:55:22;3.10;;;1.90;;
21798;SDS011;24973;47.178;15.316;2023-07-29T12:58:11;2.23;;;1.50;;
21798;SDS011;24973;47.178;15.316;2023-07-29T13:01:00;2.03;;;1.50;;
21798;SDS011;24973;47.178;15.316;2023-07-29T13:03:50;5.40;;;2.17;;
21798;SDS011;24973;47.178;15.316;2023-07-29T13:06:39;2.87;;;1.50;;
21798;SDS011;24973;47.178;15.316;2023-07-29T13:09:28;2.77;;;1.73;;
21798;SDS011;24973;47.178;15.316;2023-07-29T13:12:17;4.07;;;1.80;;
21798;SDS011;24973;47.178;15.316;2023-07-29T13:15:07;3.80;;;2.20;;
21798;SDS011;24973;47.178;15.316;2023-07-29T13:17:56;2.87;;;2.10;;
21798;SDS011;24973;47.178;15.316;2023-07-29T13:20:46;2.67;;;1.80;;
21798;SDS011;24973;47.178;15.316;2023-07-29T13:23:35;3.20;;;2.10;;
21798;SDS011;24973;47.178;15.316;2023-07-29T13:26:24;4.57;;;2.10;;
21798;SDS011;24973;47.178;15.316;2023-07-29T13:29:14;5.07;;;1.65;;
21798;SDS011;24973;47.178;15.316;2023-07-29T13:32:03;3.38;;;2.30;;
21798;SDS011;24973;47.178;15.316;2023-07-29T13:34:53;3.30;;;1.77;;
21798;SDS011;24973;47.178;15.316;2023-07-29T13:37:43;2.65;;;1.98;;
21798;SDS011;24973;47.178;15.316;2023-07-29T13:40:32;2.03;;;1.65;;
21798;SDS011;24973;47.178;15.316;2023-07-29T13:43:21;2.35;;;1.60;;
21798;SDS011;24973;47.178;15.316;2023-07-29T13:46:10;2.75;;;2.00;;
21798;SDS011;24973;47.178;15.316;2023-07-29T13:48:59;2.25;;;1.90;;
21798;SDS011;24973;47.178;15.316;2023-07-29T13:51:48;1.88;;;1.52;;
21798;SDS011;24973;47.178;15.316;2023-07-29T13:54:38;3.08;;;2.22;;
21798;SDS011;24973;47.178;15.316;2023-07-29T13:57:27;2.30;;;1.88;;
21798;SDS011;24973;47.178;15.316;2023-07-29T14:00:16;2.95;;;2.58;;
21798;SDS011;24973;47.178;15.316;2023-07-29T14:03:05;2.13;;;1.90;;
21798;SDS011;24973;47.178;15.316;2023-07-29T14:05:53;2.47;;;2.28;;
21798;SDS011;24973;47.178;15.316;2023-07-29T14:08:43;2.83;;;2.00;;
21798;SDS011;24973;47.178;15.316;2023-07-29T14:11:33;1.95;;;1.75;;
21798;SDS011;24973;47.178;15.316;2023-07-29T14:14:22;1.63;;;1.52;;
21798;SDS011;24973;47.178;15.316;2023-07-29T14:17:10;1.60;;;1.30;;
21798;SDS011;24973;47.178;15.316;2023-07-29T14:19:59;1.85;;;1.70;;
21798;SDS011;24973;47.178;15.316;2023-07-29T14:22:48;1.60;;;1.50;;
21798;SDS011;24973;47.178;15.316;2023-07-29T14:25:37;2.33;;;1.92;;
21798;SDS011;24973;47.178;15.316;2023-07-29T14:28:27;3.40;;;1.80;;
21798;SDS011;24973;47.178;15.316;2023-07-29T14:31:17;1.58;;;1.48;;
21798;SDS011;24973;47.178;15.316;2023-07-29T14:34:06;1.73;;;1.60;;
21798;SDS011;24973;47.178;15.316;2023-07-29T14:36:55;2.00;;;1.83;;
21798;SDS011;24973;47.178;15.316;2023-07-29T14:39:43;1.42;;;1.33;;
21798;SDS011;24973;47.178;15.316;2023-07-29T14:42:32;4.30;;;1.80;;
21798;SDS011;24973;47.178;15.316;2023-07-29T14:45:23;1.77;;;1.50;;
21798;SDS011;24973;47.178;15.316;2023-07-29T14:48:12;2.67;;;1.80;;
21798;SDS011;24973;47.178;15.316;2023-07-29T14:51:01;2.95;;;1.63;;
21798;SDS011;24973;47.178;15.316;2023-07-29T14:53:50;1.33;;;1.23;;
21798;SDS011;24973;47.178;15.316;2023-07-29T14:56:39;1.30;;;1.20;;
21798;SDS011;24973;47.178;15.316;2023-07-29T14:59:28;1.98;;;1.67;;
21798;SDS011;24973;47.178;15.316;2023-07-29T15:02:18;1.30;;;1.20;;
21798;SDS011;24973;47.178;15.316;2023-07-29T15:05:09;1.52;;;1.42;;
21798;SDS011;24973;47.178;15.316;2023-07-29T15:07:57;1.80;;;1.70;;
21798;SDS011;24973;47.178;15.316;2023-07-29T15:10:46;1.58;;;1.40;;
21798;SDS011;24973;47.178;15.316;2023-07-29T15:13:35;1.75;;;1.55;;
21798;SDS011;24973;47.178;15.316;2023-07-29T15:16:24;1.98;;;1.77;;
21798;SDS011;24973;47.178;15.316;2023-07-29T15:19:14;5.43;;;1.52;;
21798;SDS011;24973;47.178;15.316;2023-07-29T15:22:04;2.45;;;1.42;;
21798;SDS011;24973;47.178;15.316;2023-07-29T15:24:53;1.75;;;1.65;;
21798;SDS011;24973;47.178;15.316;2023-07-29T15:27:42;1.80;;;1.67;;
21798;SDS011;24973;47.178;15.316;2023-07-29T15:30:31;2.17;;;1.50;;
21798;SDS011;24973;47.178;15.316;2023-07-29T15:33:20;1.85;;;1.70;;
21798;SDS011;24973;47.178;15.316;2023-07-29T15:36:11;2.28;;;1.60;;
21798;SDS011;24973;47.178;15.316;2023-07-29T15:39:00;3.38;;;1.67;;
21798;SDS011;24973;47.178;15.316;2023-07-29T15:41:49;2.15;;;1.75;;
21798;SDS011;24973;47.178;15.316;2023-07-29T15:44:38;1.88;;;1.55;;
21798;SDS011;24973;47.178;15.316;2023-07-29T15:47:27;2.05;;;1.55;;
21798;SDS011;24973;47.178;15.316;2023-07-29T15:50:17;2.38;;;1.85;;
21798;SDS011;24973;47.178;15.316;2023-07-29T15:53:07;2.97;;;1.65;;
21798;SDS011;24973;47.178;15.316;2023-07-29T15:55:56;1.98;;;1.77;;
21798;SDS011;24973;47.178;15.316;2023-07-29T15:58:44;2.35;;;1.70;;
21798;SDS011;24973;47.178;15.316;2023-07-29T16:01:33;4.03;;;1.70;;
21798;SDS011;24973;47.178;15.316;2023-07-29T16:04:23;2.40;;;1.60;;
21798;SDS011;24973;47.178;15.316;2023-07-29T16:07:11;1.40;;;1.30;;
21798;SDS011;24973;47.178;15.316;2023-07-29T16:10:01;2.83;;;1.77;;
21798;SDS011;24973;47.178;15.316;2023-07-29T16:12:51;2.55;;;1.67;;
21798;SDS011;24973;47.178;15.316;2023-07-29T16:15:40;3.67;;;2.10;;
21798;SDS011;24973;47.178;15.316;2023-07-29T16:18:29;3.67;;;1.88;;
21798;SDS011;24973;47.178;15.316;2023-07-29T16:21:18;3.22;;;2.28;;
21798;SDS011;24973;47.178;15.316;2023-07-29T16:24:07;2.17;;;1.98;;
21798;SDS011;24973;47.178;15.316;2023-07-29T16:26:57;2.80;;;2.03;;
21798;SDS011;24973;47.178;15.316;2023-07-29T16:29:45;4.50;;;2.30;;
21798;SDS011;24973;47.178;15.316;2023-07-29T16:32:34;3.78;;;2.03;;
21798;SDS011;24973;47.178;15.316;2023-07-29T16:35:23;4.25;;;1.70;;
21798;SDS011;24973;47.178;15.316;2023-07-29T16:38:12;2.58;;;2.08;;
21798;SDS011;24973;47.178;15.316;2023-07-29T16:41:01;2.83;;;2.10;;
21798;SDS011;24973;47.178;15.316;2023-07-29T16:43:58;4.03;;;2.23;;
21798;SDS011;24973;47.178;15.316;2023-07-29T16:46:46;4.30;;;2.93;;
21798;SDS011;24973;47.178;15.316;2023-07-29T16:49:35;2.60;;;1.90;;